sensor_id;sensor_type;location;lat;lon;timestamp;temperature;humidity
70456;DHT22;57916;51.996;5.180;2023-07-09T00:02:02;27.40;59.50
70456;DHT22;57916;51.996;5.180;2023-07-09T00:04:30;27.30;59.30
70456;DHT22;57916;51.996;5.180;2023-07-09T00:07:00;27.30;59.30
70456;DHT22;57916;51.996;5.180;2023-07-09T00:09:28;27.20;59.40
70456;DHT22;57916;51.996;5.180;2023-07-09T00:11:55;27.20;59.70
70456;DHT22;57916;51.996;5.180;2023-07-09T00:14:22;27.20;59.70
70456;DHT22;57916;51.996;5.180;2023-07-09T00:16:49;27.10;60.00
70456;DHT22;57916;51.996;5.180;2023-07-09T00:19:19;27.10;60.00
70456;DHT22;57916;51.996;5.180;2023-07-09T00:21:48;27.10;60.00
70456;DHT22;57916;51.996;5.180;2023-07-09T00:24:16;27.10;60.40
70456;DHT22;57916;51.996;5.180;2023-07-09T00:26:43;27.00;60.30
70456;DHT22;57916;51.996;5.180;2023-07-09T00:29:10;27.10;60.40
70456;DHT22;57916;51.996;5.180;2023-07-09T00:31:38;27.00;60.80
70456;DHT22;57916;51.996;5.180;2023-07-09T00:34:10;27.00;60.50
70456;DHT22;57916;51.996;5.180;2023-07-09T00:36:41;27.00;60.50
70456;DHT22;57916;51.996;5.180;2023-07-09T00:39:19;27.00;60.60
70456;DHT22;57916;51.996;5.180;2023-07-09T00:41:47;27.00;61.80
70456;DHT22;57916;51.996;5.180;2023-07-09T00:44:29;27.00;61.00
70456;DHT22;57916;51.996;5.180;2023-07-09T00:49:37;26.90;61.00
70456;DHT22;57916;51.996;5.180;2023-07-09T00:52:24;26.90;60.90
70456;DHT22;57916;51.996;5.180;2023-07-09T00:54:55;26.90;60.90
70456;DHT22;57916;51.996;5.180;2023-07-09T00:57:25;26.90;60.90
70456;DHT22;57916;51.996;5.180;2023-07-09T01:00:00;26.90;61.00
70456;DHT22;57916;51.996;5.180;2023-07-09T01:02:34;26.90;61.00
70456;DHT22;57916;51.996;5.180;2023-07-09T01:05:02;26.80;61.00
70456;DHT22;57916;51.996;5.180;2023-07-09T01:07:31;26.80;60.90
70456;DHT22;57916;51.996;5.180;2023-07-09T01:09:58;26.70;61.10
70456;DHT22;57916;51.996;5.180;2023-07-09T01:12:25;26.60;61.40
70456;DHT22;57916;51.996;5.180;2023-07-09T01:14:55;26.60;61.40
70456;DHT22;57916;51.996;5.180;2023-07-09T01:17:29;26.60;61.40
70456;DHT22;57916;51.996;5.180;2023-07-09T01:19:56;26.60;61.40
70456;DHT22;57916;51.996;5.180;2023-07-09T01:22:24;26.60;61.50
70456;DHT22;57916;51.996;5.180;2023-07-09T01:25:04;26.60;61.40
70456;DHT22;57916;51.996;5.180;2023-07-09T01:27:37;26.60;61.30
70456;DHT22;57916;51.996;5.180;2023-07-09T01:30:08;26.60;61.50
70456;DHT22;57916;51.996;5.180;2023-07-09T01:32:37;26.50;61.80
70456;DHT22;57916;51.996;5.180;2023-07-09T01:35:06;26.50;61.80
70456;DHT22;57916;51.996;5.180;2023-07-09T01:37:37;26.50;61.90
70456;DHT22;57916;51.996;5.180;2023-07-09T01:40:07;26.40;61.80
70456;DHT22;57916;51.996;5.180;2023-07-09T01:42:55;26.40;61.70
70456;DHT22;57916;51.996;5.180;2023-07-09T01:45:22;26.40;61.80
70456;DHT22;57916;51.996;5.180;2023-07-09T01:47:49;26.40;62.00
70456;DHT22;57916;51.996;5.180;2023-07-09T01:50:17;26.30;62.30
70456;DHT22;57916;51.996;5.180;2023-07-09T01:52:46;26.30;62.50
70456;DHT22;57916;51.996;5.180;2023-07-09T01:55:14;26.20;62.50
70456;DHT22;57916;51.996;5.180;2023-07-09T01:57:44;26.00;62.80
70456;DHT22;57916;51.996;5.180;2023-07-09T02:00:15;25.80;63.20
70456;DHT22;57916;51.996;5.180;2023-07-09T02:02:45;25.60;63.30
70456;DHT22;57916;51.996;5.180;2023-07-09T02:05:16;25.50;63.30
70456;DHT22;57916;51.996;5.180;2023-07-09T02:07:45;25.40;63.40
70456;DHT22;57916;51.996;5.180;2023-07-09T02:10:15;25.40;63.70
70456;DHT22;57916;51.996;5.180;2023-07-09T02:12:42;25.30;63.80
70456;DHT22;57916;51.996;5.180;2023-07-09T02:15:10;25.30;64.00
70456;DHT22;57916;51.996;5.180;2023-07-09T02:17:37;25.30;63.90
70456;DHT22;57916;51.996;5.180;2023-07-09T02:20:05;25.30;64.10
70456;DHT22;57916;51.996;5.180;2023-07-09T02:22:34;25.40;64.30
70456;DHT22;57916;51.996;5.180;2023-07-09T02:25:02;25.50;64.20
70456;DHT22;57916;51.996;5.180;2023-07-09T02:27:29;25.60;63.60
70456;DHT22;57916;51.996;5.180;2023-07-09T02:29:56;25.60;63.70
70456;DHT22;57916;51.996;5.180;2023-07-09T02:32:25;25.60;63.40
70456;DHT22;57916;51.996;5.180;2023-07-09T02:34:54;25.60;63.60
70456;DHT22;57916;51.996;5.180;2023-07-09T02:37:23;25.70;63.70
70456;DHT22;57916;51.996;5.180;2023-07-09T02:39:51;25.80;63.70
70456;DHT22;57916;51.996;5.180;2023-07-09T02:42:20;25.80;63.60
70456;DHT22;57916;51.996;5.180;2023-07-09T02:44:49;25.80;63.10
70456;DHT22;57916;51.996;5.180;2023-07-09T02:47:17;25.80;63.40
70456;DHT22;57916;51.996;5.180;2023-07-09T02:49:44;25.80;63.50
70456;DHT22;57916;51.996;5.180;2023-07-09T02:52:12;25.80;63.40
70456;DHT22;57916;51.996;5.180;2023-07-09T02:54:38;25.80;63.50
70456;DHT22;57916;51.996;5.180;2023-07-09T02:57:06;25.80;63.40
70456;DHT22;57916;51.996;5.180;2023-07-09T02:59:33;25.80;63.50
70456;DHT22;57916;51.996;5.180;2023-07-09T03:02:01;25.80;63.60
70456;DHT22;57916;51.996;5.180;2023-07-09T03:04:28;25.70;63.60
70456;DHT22;57916;51.996;5.180;2023-07-09T03:06:55;25.70;63.70
70456;DHT22;57916;51.996;5.180;2023-07-09T03:09:22;25.70;63.80
70456;DHT22;57916;51.996;5.180;2023-07-09T03:11:49;25.70;63.70
70456;DHT22;57916;51.996;5.180;2023-07-09T03:14:16;25.70;63.80
70456;DHT22;57916;51.996;5.180;2023-07-09T03:16:43;25.70;63.90
70456;DHT22;57916;51.996;5.180;2023-07-09T03:19:11;25.60;64.30
70456;DHT22;57916;51.996;5.180;2023-07-09T03:21:38;25.70;64.40
70456;DHT22;57916;51.996;5.180;2023-07-09T03:24:05;25.60;64.50
70456;DHT22;57916;51.996;5.180;2023-07-09T03:26:32;25.60;64.70
70456;DHT22;57916;51.996;5.180;2023-07-09T03:28:59;25.60;64.80
70456;DHT22;57916;51.996;5.180;2023-07-09T03:31:26;25.60;64.50
70456;DHT22;57916;51.996;5.180;2023-07-09T03:33:53;25.60;64.40
70456;DHT22;57916;51.996;5.180;2023-07-09T03:36:21;25.60;64.80
70456;DHT22;57916;51.996;5.180;2023-07-09T03:38:48;25.60;65.00
70456;DHT22;57916;51.996;5.180;2023-07-09T03:41:15;25.50;65.00
70456;DHT22;57916;51.996;5.180;2023-07-09T03:43:43;25.50;65.00
70456;DHT22;57916;51.996;5.180;2023-07-09T03:46:10;25.50;65.00
70456;DHT22;57916;51.996;5.180;2023-07-09T03:48:38;25.50;64.60
70456;DHT22;57916;51.996;5.180;2023-07-09T03:51:05;25.50;64.60
70456;DHT22;57916;51.996;5.180;2023-07-09T03:53:32;25.50;64.50
70456;DHT22;57916;51.996;5.180;2023-07-09T03:55:59;25.50;64.40
70456;DHT22;57916;51.996;5.180;2023-07-09T03:58:27;25.50;64.60
70456;DHT22;57916;51.996;5.180;2023-07-09T04:00:55;25.50;64.60
70456;DHT22;57916;51.996;5.180;2023-07-09T04:03:22;25.50;64.70
70456;DHT22;57916;51.996;5.180;2023-07-09T04:05:50;25.50;64.90
70456;DHT22;57916;51.996;5.180;2023-07-09T04:08:17;25.50;65.00
70456;DHT22;57916;51.996;5.180;2023-07-09T04:10:44;25.50;65.00
70456;DHT22;57916;51.996;5.180;2023-07-09T04:13:11;25.50;65.10
70456;DHT22;57916;51.996;5.180;2023-07-09T04:15:38;25.50;65.30
70456;DHT22;57916;51.996;5.180;2023-07-09T04:18:05;25.50;65.30
70456;DHT22;57916;51.996;5.180;2023-07-09T04:20:32;25.50;65.40
70456;DHT22;57916;51.996;5.180;2023-07-09T04:23:01;25.50;65.40
70456;DHT22;57916;51.996;5.180;2023-07-09T04:25:28;25.50;65.60
70456;DHT22;57916;51.996;5.180;2023-07-09T04:27:56;25.50;65.50
70456;DHT22;57916;51.996;5.180;2023-07-09T04:30:23;25.50;65.50
70456;DHT22;57916;51.996;5.180;2023-07-09T04:32:50;25.60;65.70
70456;DHT22;57916;51.996;5.180;2023-07-09T04:35:18;25.60;65.80
70456;DHT22;57916;51.996;5.180;2023-07-09T04:37:45;25.60;65.80
70456;DHT22;57916;51.996;5.180;2023-07-09T04:40:12;25.70;65.90
70456;DHT22;57916;51.996;5.180;2023-07-09T04:42:39;25.70;65.90
70456;DHT22;57916;51.996;5.180;2023-07-09T04:45:09;25.70;65.40
70456;DHT22;57916;51.996;5.180;2023-07-09T04:47:37;25.60;64.60
70456;DHT22;57916;51.996;5.180;2023-07-09T04:50:06;25.40;64.90
70456;DHT22;57916;51.996;5.180;2023-07-09T04:52:34;25.20;65.50
70456;DHT22;57916;51.996;5.180;2023-07-09T04:55:01;25.10;66.30
70456;DHT22;57916;51.996;5.180;2023-07-09T04:57:29;25.10;67.10
70456;DHT22;57916;51.996;5.180;2023-07-09T04:59:55;25.10;67.20
70456;DHT22;57916;51.996;5.180;2023-07-09T05:02:23;25.20;67.30
70456;DHT22;57916;51.996;5.180;2023-07-09T05:04:50;25.30;67.00
70456;DHT22;57916;51.996;5.180;2023-07-09T05:07:17;25.30;66.30
70456;DHT22;57916;51.996;5.180;2023-07-09T05:09:45;25.30;66.60
70456;DHT22;57916;51.996;5.180;2023-07-09T05:12:11;25.40;67.20
70456;DHT22;57916;51.996;5.180;2023-07-09T05:14:39;25.50;67.70
70456;DHT22;57916;51.996;5.180;2023-07-09T05:17:07;25.70;67.90
70456;DHT22;57916;51.996;5.180;2023-07-09T05:19:35;25.80;67.70
70456;DHT22;57916;51.996;5.180;2023-07-09T05:22:02;25.90;67.60
70456;DHT22;57916;51.996;5.180;2023-07-09T05:24:30;26.00;66.60
70456;DHT22;57916;51.996;5.180;2023-07-09T05:26:57;26.10;66.40
70456;DHT22;57916;51.996;5.180;2023-07-09T05:29:25;26.20;66.20
70456;DHT22;57916;51.996;5.180;2023-07-09T05:31:52;26.20;65.10
70456;DHT22;57916;51.996;5.180;2023-07-09T05:34:19;26.30;65.00
70456;DHT22;57916;51.996;5.180;2023-07-09T05:36:46;26.30;64.40
70456;DHT22;57916;51.996;5.180;2023-07-09T05:39:13;26.40;63.80
70456;DHT22;57916;51.996;5.180;2023-07-09T05:41:40;26.40;63.80
70456;DHT22;57916;51.996;5.180;2023-07-09T05:44:07;26.40;63.90
70456;DHT22;57916;51.996;5.180;2023-07-09T05:46:35;26.40;64.30
70456;DHT22;57916;51.996;5.180;2023-07-09T05:49:04;26.40;63.50
70456;DHT22;57916;51.996;5.180;2023-07-09T05:51:31;26.50;63.70
70456;DHT22;57916;51.996;5.180;2023-07-09T05:53:59;26.60;63.80
70456;DHT22;57916;51.996;5.180;2023-07-09T05:56:26;26.60;63.60
70456;DHT22;57916;51.996;5.180;2023-07-09T05:58:53;26.70;63.90
70456;DHT22;57916;51.996;5.180;2023-07-09T06:01:20;26.70;63.90
70456;DHT22;57916;51.996;5.180;2023-07-09T06:03:47;26.70;64.00
70456;DHT22;57916;51.996;5.180;2023-07-09T06:06:15;26.80;64.70
70456;DHT22;57916;51.996;5.180;2023-07-09T06:08:42;26.80;64.70
70456;DHT22;57916;51.996;5.180;2023-07-09T06:11:09;26.80;64.70
70456;DHT22;57916;51.996;5.180;2023-07-09T06:13:36;26.90;65.30
70456;DHT22;57916;51.996;5.180;2023-07-09T06:16:04;27.00;65.30
70456;DHT22;57916;51.996;5.180;2023-07-09T06:18:32;27.10;64.80
70456;DHT22;57916;51.996;5.180;2023-07-09T06:21:02;27.20;64.70
70456;DHT22;57916;51.996;5.180;2023-07-09T06:23:30;27.30;64.50
70456;DHT22;57916;51.996;5.180;2023-07-09T06:25:58;27.40;63.70
70456;DHT22;57916;51.996;5.180;2023-07-09T06:28:27;27.40;63.30
70456;DHT22;57916;51.996;5.180;2023-07-09T06:30:57;27.50;63.00
70456;DHT22;57916;51.996;5.180;2023-07-09T06:33:26;27.60;62.60
70456;DHT22;57916;51.996;5.180;2023-07-09T06:35:56;27.60;62.60
70456;DHT22;57916;51.996;5.180;2023-07-09T06:38:25;27.70;63.00
70456;DHT22;57916;51.996;5.180;2023-07-09T06:40:52;27.80;63.00
70456;DHT22;57916;51.996;5.180;2023-07-09T06:43:20;27.90;63.20
70456;DHT22;57916;51.996;5.180;2023-07-09T06:45:57;28.00;62.90
70456;DHT22;57916;51.996;5.180;2023-07-09T06:48:26;28.10;62.20
70456;DHT22;57916;51.996;5.180;2023-07-09T06:50:55;28.20;63.00
70456;DHT22;57916;51.996;5.180;2023-07-09T06:53:23;28.40;62.80
70456;DHT22;57916;51.996;5.180;2023-07-09T06:55:50;28.50;63.00
70456;DHT22;57916;51.996;5.180;2023-07-09T06:58:19;28.60;62.10
70456;DHT22;57916;51.996;5.180;2023-07-09T07:00:48;28.70;61.80
70456;DHT22;57916;51.996;5.180;2023-07-09T07:03:16;28.80;61.50
70456;DHT22;57916;51.996;5.180;2023-07-09T07:05:44;28.90;61.00
70456;DHT22;57916;51.996;5.180;2023-07-09T07:08:14;29.00;60.40
70456;DHT22;57916;51.996;5.180;2023-07-09T07:10:42;29.10;59.40
70456;DHT22;57916;51.996;5.180;2023-07-09T07:13:10;29.30;59.50
70456;DHT22;57916;51.996;5.180;2023-07-09T07:15:38;29.50;59.00
70456;DHT22;57916;51.996;5.180;2023-07-09T07:18:06;29.70;57.90
70456;DHT22;57916;51.996;5.180;2023-07-09T07:20:34;29.80;57.30
70456;DHT22;57916;51.996;5.180;2023-07-09T07:23:01;30.00;56.00
70456;DHT22;57916;51.996;5.180;2023-07-09T07:25:27;30.10;56.30
70456;DHT22;57916;51.996;5.180;2023-07-09T07:27:54;30.40;56.60
70456;DHT22;57916;51.996;5.180;2023-07-09T07:30:22;30.70;56.40
70456;DHT22;57916;51.996;5.180;2023-07-09T07:32:52;31.00;55.30
70456;DHT22;57916;51.996;5.180;2023-07-09T07:35:19;31.30;55.80
70456;DHT22;57916;51.996;5.180;2023-07-09T07:37:46;31.60;56.10
70456;DHT22;57916;51.996;5.180;2023-07-09T07:40:13;31.90;53.70
70456;DHT22;57916;51.996;5.180;2023-07-09T07:42:40;32.10;52.60
70456;DHT22;57916;51.996;5.180;2023-07-09T07:45:08;32.30;52.00
70456;DHT22;57916;51.996;5.180;2023-07-09T07:47:35;32.60;52.10
70456;DHT22;57916;51.996;5.180;2023-07-09T07:50:05;32.90;50.40
70456;DHT22;57916;51.996;5.180;2023-07-09T07:52:32;33.10;50.50
70456;DHT22;57916;51.996;5.180;2023-07-09T07:55:05;33.20;49.60
70456;DHT22;57916;51.996;5.180;2023-07-09T07:57:32;33.40;49.30
70456;DHT22;57916;51.996;5.180;2023-07-09T07:59:59;33.60;48.50
70456;DHT22;57916;51.996;5.180;2023-07-09T08:02:37;33.90;49.00
70456;DHT22;57916;51.996;5.180;2023-07-09T08:05:06;34.30;48.80
70456;DHT22;57916;51.996;5.180;2023-07-09T08:07:33;34.50;47.90
70456;DHT22;57916;51.996;5.180;2023-07-09T08:10:00;34.70;46.80
70456;DHT22;57916;51.996;5.180;2023-07-09T08:12:27;34.90;45.40
70456;DHT22;57916;51.996;5.180;2023-07-09T08:14:54;35.00;46.50
70456;DHT22;57916;51.996;5.180;2023-07-09T08:17:21;35.20;45.60
70456;DHT22;57916;51.996;5.180;2023-07-09T08:19:50;35.30;45.50
70456;DHT22;57916;51.996;5.180;2023-07-09T08:22:18;35.40;44.10
70456;DHT22;57916;51.996;5.180;2023-07-09T08:24:48;35.50;43.70
70456;DHT22;57916;51.996;5.180;2023-07-09T08:27:16;35.60;43.70
70456;DHT22;57916;51.996;5.180;2023-07-09T08:29:43;35.70;43.30
70456;DHT22;57916;51.996;5.180;2023-07-09T08:32:12;35.60;41.90
70456;DHT22;57916;51.996;5.180;2023-07-09T08:34:41;35.50;43.60
70456;DHT22;57916;51.996;5.180;2023-07-09T08:37:28;35.50;42.40
70456;DHT22;57916;51.996;5.180;2023-07-09T08:39:55;35.50;42.70
70456;DHT22;57916;51.996;5.180;2023-07-09T08:42:29;35.40;41.90
70456;DHT22;57916;51.996;5.180;2023-07-09T08:48:12;35.30;42.50
70456;DHT22;57916;51.996;5.180;2023-07-09T08:50:47;35.40;42.60
70456;DHT22;57916;51.996;5.180;2023-07-09T08:53:39;35.40;41.10
70456;DHT22;57916;51.996;5.180;2023-07-09T08:56:10;35.30;41.00
70456;DHT22;57916;51.996;5.180;2023-07-09T08:58:38;35.40;40.90
70456;DHT22;57916;51.996;5.180;2023-07-09T09:01:37;35.50;42.90
70456;DHT22;57916;51.996;5.180;2023-07-09T09:04:19;35.80;40.90
70456;DHT22;57916;51.996;5.180;2023-07-09T09:06:50;36.00;41.50
70456;DHT22;57916;51.996;5.180;2023-07-09T09:12:15;36.00;41.20
70456;DHT22;57916;51.996;5.180;2023-07-09T09:14:56;36.00;40.90
70456;DHT22;57916;51.996;5.180;2023-07-09T09:17:24;35.90;40.80
70456;DHT22;57916;51.996;5.180;2023-07-09T09:20:05;35.80;41.70
70456;DHT22;57916;51.996;5.180;2023-07-09T09:23:11;35.80;41.20
70456;DHT22;57916;51.996;5.180;2023-07-09T09:25:42;36.00;40.50
70456;DHT22;57916;51.996;5.180;2023-07-09T09:28:11;36.10;41.10
70456;DHT22;57916;51.996;5.180;2023-07-09T09:30:38;36.20;39.10
70456;DHT22;57916;51.996;5.180;2023-07-09T09:33:08;36.00;39.20
70456;DHT22;57916;51.996;5.180;2023-07-09T09:35:41;35.80;40.10
70456;DHT22;57916;51.996;5.180;2023-07-09T09:38:12;35.70;40.30
70456;DHT22;57916;51.996;5.180;2023-07-09T09:40:39;35.70;41.50
70456;DHT22;57916;51.996;5.180;2023-07-09T09:43:15;35.80;39.60
70456;DHT22;57916;51.996;5.180;2023-07-09T09:45:44;35.80;39.60
70456;DHT22;57916;51.996;5.180;2023-07-09T09:48:19;35.90;40.00
70456;DHT22;57916;51.996;5.180;2023-07-09T09:50:48;36.00;38.80
70456;DHT22;57916;51.996;5.180;2023-07-09T09:53:22;35.90;40.80
70456;DHT22;57916;51.996;5.180;2023-07-09T09:55:52;35.90;39.40
70456;DHT22;57916;51.996;5.180;2023-07-09T09:58:20;35.80;42.00
70456;DHT22;57916;51.996;5.180;2023-07-09T10:00:54;35.90;41.60
70456;DHT22;57916;51.996;5.180;2023-07-09T10:03:31;35.90;39.90
70456;DHT22;57916;51.996;5.180;2023-07-09T10:06:01;35.90;40.00
70456;DHT22;57916;51.996;5.180;2023-07-09T10:08:55;36.20;40.20
70456;DHT22;57916;51.996;5.180;2023-07-09T10:11:45;36.30;39.20
70456;DHT22;57916;51.996;5.180;2023-07-09T10:15:19;36.30;42.00
70456;DHT22;57916;51.996;5.180;2023-07-09T10:17:46;36.60;38.50
70456;DHT22;57916;51.996;5.180;2023-07-09T10:20:37;37.00;38.20
70456;DHT22;57916;51.996;5.180;2023-07-09T10:34:28;37.20;36.60
70456;DHT22;57916;51.996;5.180;2023-07-09T10:40:04;37.00;38.30
70456;DHT22;57916;51.996;5.180;2023-07-09T10:42:47;37.10;38.90
70456;DHT22;57916;51.996;5.180;2023-07-09T10:45:20;37.10;37.30
70456;DHT22;57916;51.996;5.180;2023-07-09T10:47:57;37.00;37.00
70456;DHT22;57916;51.996;5.180;2023-07-09T10:50:36;37.10;37.50
70456;DHT22;57916;51.996;5.180;2023-07-09T11:01:00;36.90;37.40
70456;DHT22;57916;51.996;5.180;2023-07-09T11:03:49;36.80;37.00
70456;DHT22;57916;51.996;5.180;2023-07-09T11:06:43;36.80;36.50
70456;DHT22;57916;51.996;5.180;2023-07-09T11:09:29;36.70;36.90
70456;DHT22;57916;51.996;5.180;2023-07-09T11:12:02;36.80;38.00
70456;DHT22;57916;51.996;5.180;2023-07-09T11:14:35;36.90;38.40
70456;DHT22;57916;51.996;5.180;2023-07-09T11:17:04;37.00;38.10
70456;DHT22;57916;51.996;5.180;2023-07-09T11:19:32;37.00;36.80
70456;DHT22;57916;51.996;5.180;2023-07-09T11:22:05;37.10;36.60
70456;DHT22;57916;51.996;5.180;2023-07-09T11:25:07;37.10;39.20
70456;DHT22;57916;51.996;5.180;2023-07-09T11:27:53;37.20;42.30
70456;DHT22;57916;51.996;5.180;2023-07-09T11:30:27;37.30;40.60
70456;DHT22;57916;51.996;5.180;2023-07-09T11:33:03;37.20;39.80
70456;DHT22;57916;51.996;5.180;2023-07-09T11:35:52;37.00;39.50
70456;DHT22;57916;51.996;5.180;2023-07-09T11:38:24;36.80;40.40
70456;DHT22;57916;51.996;5.180;2023-07-09T11:40:55;36.70;42.30
70456;DHT22;57916;51.996;5.180;2023-07-09T11:43:34;36.60;42.60
70456;DHT22;57916;51.996;5.180;2023-07-09T11:46:13;36.60;42.40
70456;DHT22;57916;51.996;5.180;2023-07-09T11:48:41;36.50;41.60
70456;DHT22;57916;51.996;5.180;2023-07-09T11:51:27;36.30;42.30
70456;DHT22;57916;51.996;5.180;2023-07-09T11:53:56;36.10;41.70
70456;DHT22;57916;51.996;5.180;2023-07-09T11:56:24;36.00;43.00
70456;DHT22;57916;51.996;5.180;2023-07-09T11:58:57;35.90;42.60
70456;DHT22;57916;51.996;5.180;2023-07-09T12:01:36;35.90;43.90
70456;DHT22;57916;51.996;5.180;2023-07-09T12:04:06;35.80;44.90
70456;DHT22;57916;51.996;5.180;2023-07-09T12:06:38;35.70;45.10
70456;DHT22;57916;51.996;5.180;2023-07-09T12:09:08;35.60;43.30
70456;DHT22;57916;51.996;5.180;2023-07-09T12:11:36;35.50;43.50
70456;DHT22;57916;51.996;5.180;2023-07-09T12:14:18;35.50;41.90
70456;DHT22;57916;51.996;5.180;2023-07-09T12:16:50;35.30;42.90
70456;DHT22;57916;51.996;5.180;2023-07-09T12:19:22;35.40;45.20
70456;DHT22;57916;51.996;5.180;2023-07-09T12:21:53;35.30;42.20
70456;DHT22;57916;51.996;5.180;2023-07-09T12:24:34;35.20;42.90
70456;DHT22;57916;51.996;5.180;2023-07-09T12:27:14;35.20;43.00
70456;DHT22;57916;51.996;5.180;2023-07-09T12:29:42;35.20;45.40
70456;DHT22;57916;51.996;5.180;2023-07-09T12:32:15;35.30;44.40
70456;DHT22;57916;51.996;5.180;2023-07-09T12:34:47;35.30;43.60
70456;DHT22;57916;51.996;5.180;2023-07-09T12:37:15;35.30;42.30
70456;DHT22;57916;51.996;5.180;2023-07-09T12:39:42;35.20;41.90
70456;DHT22;57916;51.996;5.180;2023-07-09T12:42:16;35.00;42.10
70456;DHT22;57916;51.996;5.180;2023-07-09T12:44:44;34.80;42.70
70456;DHT22;57916;51.996;5.180;2023-07-09T12:47:14;34.80;44.20
70456;DHT22;57916;51.996;5.180;2023-07-09T12:49:44;34.80;43.10
70456;DHT22;57916;51.996;5.180;2023-07-09T12:52:19;34.80;43.90
70456;DHT22;57916;51.996;5.180;2023-07-09T12:54:56;34.80;42.00
70456;DHT22;57916;51.996;5.180;2023-07-09T12:57:24;34.80;41.90
70456;DHT22;57916;51.996;5.180;2023-07-09T12:59:54;34.70;41.00
70456;DHT22;57916;51.996;5.180;2023-07-09T13:02:27;34.60;40.90
70456;DHT22;57916;51.996;5.180;2023-07-09T13:05:06;34.60;41.00
70456;DHT22;57916;51.996;5.180;2023-07-09T13:07:37;34.50;43.10
70456;DHT22;57916;51.996;5.180;2023-07-09T13:10:25;34.40;42.50
70456;DHT22;57916;51.996;5.180;2023-07-09T13:13:04;34.40;41.80
70456;DHT22;57916;51.996;5.180;2023-07-09T13:15:39;34.20;43.00
70456;DHT22;57916;51.996;5.180;2023-07-09T13:18:10;34.20;42.30
70456;DHT22;57916;51.996;5.180;2023-07-09T13:20:39;34.10;42.80
70456;DHT22;57916;51.996;5.180;2023-07-09T13:23:18;34.10;42.90
70456;DHT22;57916;51.996;5.180;2023-07-09T13:25:46;34.00;44.40
70456;DHT22;57916;51.996;5.180;2023-07-09T13:33:38;33.80;42.60
70456;DHT22;57916;51.996;5.180;2023-07-09T13:36:05;33.70;42.70
70456;DHT22;57916;51.996;5.180;2023-07-09T13:38:34;33.60;43.00
70456;DHT22;57916;51.996;5.180;2023-07-09T13:41:11;33.50;42.60
70456;DHT22;57916;51.996;5.180;2023-07-09T13:43:39;33.20;42.90
70456;DHT22;57916;51.996;5.180;2023-07-09T13:46:07;32.90;43.50
70456;DHT22;57916;51.996;5.180;2023-07-09T13:48:35;32.60;44.20
70456;DHT22;57916;51.996;5.180;2023-07-09T13:51:14;32.30;44.40
70456;DHT22;57916;51.996;5.180;2023-07-09T13:53:41;32.20;45.40
70456;DHT22;57916;51.996;5.180;2023-07-09T13:56:08;32.00;45.20
70456;DHT22;57916;51.996;5.180;2023-07-09T13:58:35;31.80;44.40
70456;DHT22;57916;51.996;5.180;2023-07-09T14:01:14;31.50;44.80
70456;DHT22;57916;51.996;5.180;2023-07-09T14:03:41;31.30;45.90
70456;DHT22;57916;51.996;5.180;2023-07-09T14:06:12;31.10;46.50
70456;DHT22;57916;51.996;5.180;2023-07-09T14:08:39;31.00;46.90
70456;DHT22;57916;51.996;5.180;2023-07-09T14:11:15;30.80;47.40
70456;DHT22;57916;51.996;5.180;2023-07-09T14:13:43;30.60;47.00
70456;DHT22;57916;51.996;5.180;2023-07-09T14:16:11;30.40;47.10
70456;DHT22;57916;51.996;5.180;2023-07-09T14:18:39;30.30;48.00
70456;DHT22;57916;51.996;5.180;2023-07-09T14:21:16;30.20;48.70
70456;DHT22;57916;51.996;5.180;2023-07-09T14:23:44;30.10;49.30
70456;DHT22;57916;51.996;5.180;2023-07-09T14:26:11;30.00;49.30
70456;DHT22;57916;51.996;5.180;2023-07-09T14:28:38;29.90;49.70
70456;DHT22;57916;51.996;5.180;2023-07-09T14:31:24;29.70;49.80
70456;DHT22;57916;51.996;5.180;2023-07-09T14:33:54;29.60;49.90
70456;DHT22;57916;51.996;5.180;2023-07-09T14:36:22;29.30;51.50
70456;DHT22;57916;51.996;5.180;2023-07-09T14:38:49;29.00;53.70
70456;DHT22;57916;51.996;5.180;2023-07-09T14:41:21;28.60;57.00
70456;DHT22;57916;51.996;5.180;2023-07-09T14:43:48;28.20;58.90
70456;DHT22;57916;51.996;5.180;2023-07-09T14:46:15;27.90;60.00
70456;DHT22;57916;51.996;5.180;2023-07-09T14:48:42;27.60;61.40
70456;DHT22;57916;51.996;5.180;2023-07-09T14:51:14;27.40;62.40
70456;DHT22;57916;51.996;5.180;2023-07-09T14:53:42;27.30;66.10
70456;DHT22;57916;51.996;5.180;2023-07-09T14:56:12;27.30;66.10
70456;DHT22;57916;51.996;5.180;2023-07-09T14:58:40;27.40;65.90
70456;DHT22;57916;51.996;5.180;2023-07-09T15:01:14;27.40;66.90
70456;DHT22;57916;51.996;5.180;2023-07-09T15:03:41;27.50;67.40
70456;DHT22;57916;51.996;5.180;2023-07-09T15:06:09;27.50;67.40
70456;DHT22;57916;51.996;5.180;2023-07-09T15:08:36;27.50;67.60
70456;DHT22;57916;51.996;5.180;2023-07-09T15:11:04;27.60;67.40
70456;DHT22;57916;51.996;5.180;2023-07-09T15:13:35;27.60;67.40
70456;DHT22;57916;51.996;5.180;2023-07-09T15:16:03;27.60;67.70
70456;DHT22;57916;51.996;5.180;2023-07-09T15:18:31;27.60;66.30
70456;DHT22;57916;51.996;5.180;2023-07-09T15:21:02;27.60;66.30
70456;DHT22;57916;51.996;5.180;2023-07-09T15:23:30;27.70;66.60
70456;DHT22;57916;51.996;5.180;2023-07-09T15:26:00;27.70;66.90
70456;DHT22;57916;51.996;5.180;2023-07-09T15:28:27;27.70;67.70
70456;DHT22;57916;51.996;5.180;2023-07-09T15:30:54;27.70;66.60
70456;DHT22;57916;51.996;5.180;2023-07-09T15:33:21;27.70;66.10
70456;DHT22;57916;51.996;5.180;2023-07-09T15:35:49;27.70;66.60
70456;DHT22;57916;51.996;5.180;2023-07-09T15:38:20;27.60;65.80
70456;DHT22;57916;51.996;5.180;2023-07-09T15:40:48;27.60;66.20
70456;DHT22;57916;51.996;5.180;2023-07-09T15:43:16;27.60;66.60
70456;DHT22;57916;51.996;5.180;2023-07-09T15:45:49;27.60;65.90
70456;DHT22;57916;51.996;5.180;2023-07-09T15:48:26;27.60;65.90
70456;DHT22;57916;51.996;5.180;2023-07-09T15:50:54;27.60;67.50
70456;DHT22;57916;51.996;5.180;2023-07-09T15:53:21;27.60;66.80
70456;DHT22;57916;51.996;5.180;2023-07-09T15:55:48;27.60;66.00
70456;DHT22;57916;51.996;5.180;2023-07-09T15:58:28;27.70;66.50
70456;DHT22;57916;51.996;5.180;2023-07-09T16:00:56;27.70;65.80
70456;DHT22;57916;51.996;5.180;2023-07-09T16:03:23;27.70;66.50
70456;DHT22;57916;51.996;5.180;2023-07-09T16:05:50;27.70;66.30
70456;DHT22;57916;51.996;5.180;2023-07-09T16:08:17;27.70;66.90
70456;DHT22;57916;51.996;5.180;2023-07-09T16:10:44;27.80;66.80
70456;DHT22;57916;51.996;5.180;2023-07-09T16:13:18;27.80;65.70
70456;DHT22;57916;51.996;5.180;2023-07-09T16:15:47;27.90;65.00
70456;DHT22;57916;51.996;5.180;2023-07-09T16:18:14;27.90;66.30
70456;DHT22;57916;51.996;5.180;2023-07-09T16:20:42;27.90;65.00
70456;DHT22;57916;51.996;5.180;2023-07-09T16:23:17;28.00;66.70
70456;DHT22;57916;51.996;5.180;2023-07-09T16:25:46;28.10;66.10
70456;DHT22;57916;51.996;5.180;2023-07-09T16:28:15;28.10;65.40